sensor_id;sensor_type;location;lat;lon;timestamp;pressure;altitude;pressure_sealevel;temperature;humidity
10881;BME280;5493;48.884;8.338;2023-11-21T00:00:40;99636.38;;;11.04;100.00
10881;BME280;5493;48.884;8.338;2023-11-21T00:03:08;99645.59;;;11.31;100.00
10881;BME280;5493;48.884;8.338;2023-11-21T00:05:36;99648.31;;;11.20;100.00
10881;BME280;5493;48.884;8.338;2023-11-21T00:08:03;99640.94;;;11.15;100.00
10881;BME280;5493;48.884;8.338;2023-11-21T00:10:30;99644.09;;;11.24;100.00
10881;BME280;5493;48.884;8.338;2023-11-21T00:12:56;99653.00;;;11.24;100.00
10881;BME280;5493;48.884;8.338;2023-11-21T00:15:23;99654.53;;;11.20;100.00
10881;BME280;5493;48.884;8.338;2023-11-21T00:17:50;99644.69;;;11.14;100.00
10881;BME280;5493;48.884;8.338;2023-11-21T00:20:18;99645.75;;;11.25;100.00
10881;BME280;5493;48.884;8.338;2023-11-21T00:22:44;99650.84;;;11.38;100.00
10881;BME280;5493;48.884;8.338;2023-11-21T00:25:12;99645.53;;;11.43;100.00
10881;BME280;5493;48.884;8.338;2023-11-21T00:27:41;99641.91;;;11.38;100.00
10881;BME280;5493;48.884;8.338;2023-11-21T00:30:08;99640.47;;;11.47;100.00
10881;BME280;5493;48.884;8.338;2023-11-21T00:32:35;99644.41;;;11.39;100.00
10881;BME280;5493;48.884;8.338;2023-11-21T00:35:02;99633.31;;;11.12;100.00
10881;BME280;5493;48.884;8.338;2023-11-21T00:37:30;99634.97;;;11.13;100.00
10881;BME280;5493;48.884;8.338;2023-11-21T00:39:57;99645.94;;;11.35;100.00
10881;BME280;5493;48.884;8.338;2023-11-21T00:42:23;99636.72;;;11.19;100.00
10881;BME280;5493;48.884;8.338;2023-11-21T00:44:50;99636.25;;;11.11;100.00
10881;BME280;5493;48.884;8.338;2023-11-21T00:47:17;99639.63;;;11.18;100.00
10881;BME280;5493;48.884;8.338;2023-11-21T00:49:43;99636.91;;;11.29;100.00
10881;BME280;5493;48.884;8.338;2023-11-21T00:52:10;99633.38;;;11.29;100.00
10881;BME280;5493;48.884;8.338;2023-11-21T00:54:38;99635.03;;;11.30;100.00
10881;BME280;5493;48.884;8.338;2023-11-21T00:57:05;99623.66;;;11.28;100.00
10881;BME280;5493;48.884;8.338;2023-11-21T00:59:31;99628.03;;;11.17;100.00
10881;BME280;5493;48.884;8.338;2023-11-21T01:01:58;99625.34;;;11.17;100.00
10881;BME280;5493;48.884;8.338;2023-11-21T01:04:25;99624.81;;;11.32;100.00
10881;BME280;5493;48.884;8.338;2023-11-21T01:06:52;99637.38;;;11.26;100.00
10881;BME280;5493;48.884;8.338;2023-11-21T01:09:18;99643.09;;;11.42;100.00
10881;BME280;5493;48.884;8.338;2023-11-21T01:11:46;99639.72;;;11.34;100.00
10881;BME280;5493;48.884;8.338;2023-11-21T01:14:13;99632.28;;;11.13;100.00
10881;BME280;5493;48.884;8.338;2023-11-21T01:16:39;99639.84;;;11.28;100.00
10881;BME280;5493;48.884;8.338;2023-11-21T01:19:06;99637.34;;;11.10;100.00
10881;BME280;5493;48.884;8.338;2023-11-21T01:21:33;99644.56;;;11.21;100.00
10881;BME280;5493;48.884;8.338;2023-11-21T01:23:59;99641.88;;;11.21;100.00
10881;BME280;5493;48.884;8.338;2023-11-21T01:26:26;99645.19;;;11.40;100.00
10881;BME280;5493;48.884;8.338;2023-11-21T01:28:53;99639.59;;;11.29;100.00
10881;BME280;5493;48.884;8.338;2023-11-21T01:31:20;99653.22;;;11.23;100.00
10881;BME280;5493;48.884;8.338;2023-11-21T01:33:47;99657.88;;;10.99;100.00
10881;BME280;5493;48.884;8.338;2023-11-21T01:36:13;99661.97;;;10.90;100.00
10881;BME280;5493;48.884;8.338;2023-11-21T01:38:40;99661.47;;;11.16;100.00
10881;BME280;5493;48.884;8.338;2023-11-21T01:41:07;99656.38;;;10.80;100.00
10881;BME280;5493;48.884;8.338;2023-11-21T01:43:36;99655.19;;;10.76;100.00
10881;BME280;5493;48.884;8.338;2023-11-21T01:46:05;99655.97;;;11.00;100.00
10881;BME280;5493;48.884;8.338;2023-11-21T01:48:32;99663.38;;;10.93;100.00
10881;BME280;5493;48.884;8.338;2023-11-21T01:51:00;99657.63;;;11.01;100.00
10881;BME280;5493;48.884;8.338;2023-11-21T01:53:27;99658.84;;;10.81;100.00
10881;BME280;5493;48.884;8.338;2023-11-21T01:55:55;99655.28;;;10.93;100.00
10881;BME280;5493;48.884;8.338;2023-11-21T01:58:22;99658.03;;;10.81;100.00
10881;BME280;5493;48.884;8.338;2023-11-21T02:00:49;99648.41;;;10.73;100.00
10881;BME280;5493;48.884;8.338;2023-11-21T02:03:18;99664.34;;;10.75;100.00
10881;BME280;5493;48.884;8.338;2023-11-21T02:05:45;99661.50;;;10.93;100.00
10881;BME280;5493;48.884;8.338;2023-11-21T02:08:11;99651.75;;;11.04;100.00
10881;BME280;5493;48.884;8.338;2023-11-21T02:10:38;99651.31;;;10.95;100.00
10881;BME280;5493;48.884;8.338;2023-11-21T02:13:06;99662.34;;;10.82;100.00
10881;BME280;5493;48.884;8.338;2023-11-21T02:15:32;99664.47;;;10.92;100.00
10881;BME280;5493;48.884;8.338;2023-11-21T02:17:59;99676.06;;;10.80;100.00
10881;BME280;5493;48.884;8.338;2023-11-21T02:20:27;99678.78;;;10.69;100.00
10881;BME280;5493;48.884;8.338;2023-11-21T02:22:57;99689.31;;;10.82;100.00
10881;BME280;5493;48.884;8.338;2023-11-21T02:25:24;99677.13;;;10.79;100.00
10881;BME280;5493;48.884;8.338;2023-11-21T02:27:51;99686.03;;;10.80;100.00
10881;BME280;5493;48.884;8.338;2023-11-21T02:30:19;99684.25;;;10.85;100.00
10881;BME280;5493;48.884;8.338;2023-11-21T02:32:46;99672.91;;;10.72;100.00
10881;BME280;5493;48.884;8.338;2023-11-21T02:35:13;99679.00;;;10.67;100.00
10881;BME280;5493;48.884;8.338;2023-11-21T02:37:41;99676.28;;;10.67;100.00
10881;BME280;5493;48.884;8.338;2023-11-21T02:40:10;99679.59;;;10.58;100.00
10881;BME280;5493;48.884;8.338;2023-11-21T02:42:38;99669.28;;;10.66;100.00
10881;BME280;5493;48.884;8.338;2023-11-21T02:45:06;99669.25;;;10.31;100.00
10881;BME280;5493;48.884;8.338;2023-11-21T02:47:33;99670.94;;;10.56;100.00
10881;BME280;5493;48.884;8.338;2023-11-21T02:49:59;99670.66;;;10.46;100.00
10881;BME280;5493;48.884;8.338;2023-11-21T02:52:26;99675.81;;;10.35;100.00
10881;BME280;5493;48.884;8.338;2023-11-21T02:54:52;99664.22;;;10.35;100.00
10881;BME280;5493;48.884;8.338;2023-11-21T02:57:20;99661.19;;;10.43;100.00
10881;BME280;5493;48.884;8.338;2023-11-21T02:59:47;99665.28;;;10.46;100.00
10881;BME280;5493;48.884;8.338;2023-11-21T03:02:14;99660.84;;;10.40;100.00
10881;BME280;5493;48.884;8.338;2023-11-21T03:04:40;99660.81;;;10.28;100.00
10881;BME280;5493;48.884;8.338;2023-11-21T03:07:08;99667.97;;;10.22;100.00
10881;BME280;5493;48.884;8.338;2023-11-21T03:09:34;99660.94;;;10.33;100.00
10881;BME280;5493;48.884;8.338;2023-11-21T03:12:01;99662.59;;;10.46;100.00
10881;BME280;5493;48.884;8.338;2023-11-21T03:14:29;99660.72;;;10.34;100.00
10881;BME280;5493;48.884;8.338;2023-11-21T03:16:55;99661.66;;;10.52;100.00
10881;BME280;5493;48.884;8.338;2023-11-21T03:19:22;99662.72;;;10.62;100.00
10881;BME280;5493;48.884;8.338;2023-11-21T03:21:48;99660.38;;;10.54;100.00
10881;BME280;5493;48.884;8.338;2023-11-21T03:24:15;99653.81;;;10.50;100.00
10881;BME280;5493;48.884;8.338;2023-11-21T03:26:44;99661.53;;;10.58;100.00
10881;BME280;5493;48.884;8.338;2023-11-21T03:29:11;99656.84;;;10.54;100.00
10881;BME280;5493;48.884;8.338;2023-11-21T03:31:38;99659.19;;;10.50;100.00
10881;BME280;5493;48.884;8.338;2023-11-21T03:34:05;99661.88;;;10.50;100.00
10881;BME280;5493;48.884;8.338;2023-11-21T03:36:32;99660.59;;;10.53;100.00
10881;BME280;5493;48.884;8.338;2023-11-21T03:38:59;99664.13;;;10.53;100.00
10881;BME280;5493;48.884;8.338;2023-11-21T03:41:25;99662.38;;;10.47;100.00
10881;BME280;5493;48.884;8.338;2023-11-21T03:43:52;99655.56;;;10.56;100.00
10881;BME280;5493;48.884;8.338;2023-11-21T03:46:18;99653.91;;;10.78;100.00
10881;BME280;5493;48.884;8.338;2023-11-21T03:48:46;99656.84;;;10.77;100.00
10881;BME280;5493;48.884;8.338;2023-11-21T03:51:12;99654.63;;;10.74;100.00
10881;BME280;5493;48.884;8.338;2023-11-21T03:53:39;99642.53;;;10.53;100.00
10881;BME280;5493;48.884;8.338;2023-11-21T03:56:06;99650.63;;;10.53;100.00
10881;BME280;5493;48.884;8.338;2023-11-21T03:58:33;99643.97;;;10.56;100.00
10881;BME280;5493;48.884;8.338;2023-11-21T04:00:59;99656.72;;;10.60;100.00
10881;BME280;5493;48.884;8.338;2023-11-21T04:03:26;99665.97;;;10.53;100.00
10881;BME280;5493;48.884;8.338;2023-11-21T04:05:54;99658.38;;;10.73;100.00
10881;BME280;5493;48.884;8.338;2023-11-21T04:08:21;99668.34;;;10.61;100.00
10881;BME280;5493;48.884;8.338;2023-11-21T04:10:47;99660.50;;;10.48;100.00
10881;BME280;5493;48.884;8.338;2023-11-21T04:13:14;99666.59;;;10.66;100.00
10881;BME280;5493;48.884;8.338;2023-11-21T04:15:41;99677.25;;;10.73;100.00
10881;BME280;5493;48.884;8.338;2023-11-21T04:18:07;99674.06;;;10.99;100.00
10881;BME280;5493;48.884;8.338;2023-11-21T04:20:34;99672.91;;;10.60;100.00
10881;BME280;5493;48.884;8.338;2023-11-21T04:23:02;99681.81;;;10.61;100.00
10881;BME280;5493;48.884;8.338;2023-11-21T04:25:29;99680.19;;;10.60;100.00
10881;BME280;5493;48.884;8.338;2023-11-21T04:27:55;99685.09;;;10.51;100.00
10881;BME280;5493;48.884;8.338;2023-11-21T04:30:22;99689.78;;;10.44;100.00
10881;BME280;5493;48.884;8.338;2023-11-21T04:32:49;99693.91;;;10.70;100.00
10881;BME280;5493;48.884;8.338;2023-11-21T04:35:16;99690.72;;;10.73;100.00
10881;BME280;5493;48.884;8.338;2023-11-21T04:37:42;99694.13;;;10.68;100.00
10881;BME280;5493;48.884;8.338;2023-11-21T04:40:11;99695.19;;;10.56;100.00
10881;BME280;5493;48.884;8.338;2023-11-21T04:42:38;99692.25;;;10.57;100.00
10881;BME280;5493;48.884;8.338;2023-11-21T04:45:05;99698.34;;;10.64;100.00
10881;BME280;5493;48.884;8.338;2023-11-21T04:47:34;99704.44;;;10.71;100.00
10881;BME280;5493;48.884;8.338;2023-11-21T04:50:02;99707.59;;;10.57;100.00
10881;BME280;5493;48.884;8.338;2023-11-21T04:52:29;99701.38;;;10.68;100.00
10881;BME280;5493;48.884;8.338;2023-11-21T04:54:56;99692.47;;;10.32;100.00
10881;BME280;5493;48.884;8.338;2023-11-21T04:57:24;99697.16;;;10.37;100.00
10881;BME280;5493;48.884;8.338;2023-11-21T04:59:51;99706.06;;;10.38;100.00
10881;BME280;5493;48.884;8.338;2023-11-21T05:02:18;99700.22;;;10.41;100.00
10881;BME280;5493;48.884;8.338;2023-11-21T05:04:46;99711.00;;;10.52;100.00
10881;BME280;5493;48.884;8.338;2023-11-21T05:07:12;99712.25;;;10.26;100.00
10881;BME280;5493;48.884;8.338;2023-11-21T05:09:41;99717.09;;;10.48;100.00
10881;BME280;5493;48.884;8.338;2023-11-21T05:12:11;99713.91;;;10.39;100.00
10881;BME280;5493;48.884;8.338;2023-11-21T05:14:39;99719.66;;;10.43;100.00
10881;BME280;5493;48.884;8.338;2023-11-21T05:17:05;99721.69;;;10.59;100.00
10881;BME280;5493;48.884;8.338;2023-11-21T05:19:33;99718.47;;;10.27;100.00
10881;BME280;5493;48.884;8.338;2023-11-21T05:22:00;99722.59;;;10.41;100.00
10881;BME280;5493;48.884;8.338;2023-11-21T05:24:26;99728.34;;;10.45;100.00
10881;BME280;5493;48.884;8.338;2023-11-21T05:26:53;99723.59;;;10.28;100.00
10881;BME280;5493;48.884;8.338;2023-11-21T05:29:21;99734.56;;;10.45;100.00
10881;BME280;5493;48.884;8.338;2023-11-21T05:31:49;99739.94;;;10.45;100.00
10881;BME280;5493;48.884;8.338;2023-11-21T05:34:15;99734.38;;;10.28;100.00
10881;BME280;5493;48.884;8.338;2023-11-21T05:36:42;99745.44;;;10.50;100.00
10881;BME280;5493;48.884;8.338;2023-11-21T05:39:09;99741.78;;;10.33;100.00
10881;BME280;5493;48.884;8.338;2023-11-21T05:41:36;99746.56;;;10.31;100.00
10881;BME280;5493;48.884;8.338;2023-11-21T05:44:03;99759.03;;;10.44;100.00
10881;BME280;5493;48.884;8.338;2023-11-21T05:46:30;99757.53;;;10.59;100.00
10881;BME280;5493;48.884;8.338;2023-11-21T05:48:58;99754.81;;;10.48;100.00
10881;BME280;5493;48.884;8.338;2023-11-21T05:51:24;99765.31;;;10.26;100.00
10881;BME280;5493;48.884;8.338;2023-11-21T05:53:51;99768.75;;;10.45;100.00
10881;BME280;5493;48.884;8.338;2023-11-21T05:56:17;99763.00;;;10.53;100.00
10881;BME280;5493;48.884;8.338;2023-11-21T05:58:44;99765.22;;;10.32;100.00
10881;BME280;5493;48.884;8.338;2023-11-21T06:01:11;99764.50;;;10.07;100.00
10881;BME280;5493;48.884;8.338;2023-11-21T06:03:38;99777.63;;;10.33;100.00
10881;BME280;5493;48.884;8.338;2023-11-21T06:06:06;99781.00;;;10.29;100.00
10881;BME280;5493;48.884;8.338;2023-11-21T06:08:33;99779.59;;;10.26;100.00
10881;BME280;5493;48.884;8.338;2023-11-21T06:11:00;99772.22;;;10.22;100.00
10881;BME280;5493;48.884;8.338;2023-11-21T06:13:26;99782.78;;;10.05;100.00
10881;BME280;5493;48.884;8.338;2023-11-21T06:15:53;99786.09;;;10.37;100.00
10881;BME280;5493;48.884;8.338;2023-11-21T06:18:20;99776.56;;;10.23;100.00
10881;BME280;5493;48.884;8.338;2023-11-21T06:20:46;99785.38;;;10.30;100.00
10881;BME280;5493;48.884;8.338;2023-11-21T06:23:14;99777.75;;;10.27;100.00
10881;BME280;5493;48.884;8.338;2023-11-21T06:25:41;99781.69;;;10.24;100.00
10881;BME280;5493;48.884;8.338;2023-11-21T06:28:08;99790.72;;;10.00;100.00
10881;BME280;5493;48.884;8.338;2023-11-21T06:30:35;99793.53;;;10.23;100.00
10881;BME280;5493;48.884;8.338;2023-11-21T06:33:02;99788.97;;;10.06;100.00
10881;BME280;5493;48.884;8.338;2023-11-21T06:35:28;99800.56;;;10.06;100.00
10881;BME280;5493;48.884;8.338;2023-11-21T06:37:57;99799.41;;;10.32;100.00
10881;BME280;5493;48.884;8.338;2023-11-21T06:40:25;99796.16;;;10.12;100.00
10881;BME280;5493;48.884;8.338;2023-11-21T06:42:52;99799.38;;;10.02;100.00
10881;BME280;5493;48.884;8.338;2023-11-21T06:45:18;99809.19;;;10.15;100.00
10881;BME280;5493;48.884;8.338;2023-11-21T06:47:46;99808.94;;;10.34;100.00
10881;BME280;5493;48.884;8.338;2023-11-21T06:50:13;99813.59;;;10.39;100.00
10881;BME280;5493;48.884;8.338;2023-11-21T06:52:40;99804.69;;;10.38;100.00
10881;BME280;5493;48.884;8.338;2023-11-21T06:55:07;99802.22;;;10.25;100.00
10881;BME280;5493;48.884;8.338;2023-11-21T06:57:36;99811.84;;;10.33;100.00
10881;BME280;5493;48.884;8.338;2023-11-21T07:00:04;99817.91;;;10.28;100.00
10881;BME280;5493;48.884;8.338;2023-11-21T07:02:34;99821.75;;;10.21;100.00
10881;BME280;5493;48.884;8.338;2023-11-21T07:05:00;99825.50;;;10.20;100.00
10881;BME280;5493;48.884;8.338;2023-11-21T07:07:27;99826.13;;;10.33;100.00
10881;BME280;5493;48.884;8.338;2023-11-21T07:09:54;99820.34;;;10.00;100.00
10881;BME280;5493;48.884;8.338;2023-11-21T07:12:20;99840.22;;;10.17;100.00
10881;BME280;5493;48.884;8.338;2023-11-21T07:14:50;99842.47;;;10.02;100.00
10881;BME280;5493;48.884;8.338;2023-11-21T07:17:16;99846.69;;;10.16;100.00
10881;BME280;5493;48.884;8.338;2023-11-21T07:19:43;99855.81;;;10.15;100.00
10881;BME280;5493;48.884;8.338;2023-11-21T07:22:10;99853.00;;;10.40;100.00
10881;BME280;5493;48.884;8.338;2023-11-21T07:24:37;99857.59;;;10.51;100.00
10881;BME280;5493;48.884;8.338;2023-11-21T07:27:03;99858.53;;;10.57;100.00
10881;BME280;5493;48.884;8.338;2023-11-21T07:29:30;99853.06;;;10.63;100.00
10881;BME280;5493;48.884;8.338;2023-11-21T07:31:59;99853.34;;;10.44;100.00
10881;BME280;5493;48.884;8.338;2023-11-21T07:34:26;99866.50;;;10.22;100.00
10881;BME280;5493;48.884;8.338;2023-11-21T07:36:52;99863.91;;;10.15;100.00
10881;BME280;5493;48.884;8.338;2023-11-21T07:39:19;99877.50;;;10.20;100.00
10881;BME280;5493;48.884;8.338;2023-11-21T07:41:46;99877.66;;;10.25;100.00
10881;BME280;5493;48.884;8.338;2023-11-21T07:44:14;99870.44;;;10.38;100.00
10881;BME280;5493;48.884;8.338;2023-11-21T07:46:41;99870.91;;;10.34;100.00
10881;BME280;5493;48.884;8.338;2023-11-21T07:49:09;99867.66;;;10.44;100.00
10881;BME280;5493;48.884;8.338;2023-11-21T07:51:36;99872.78;;;10.46;100.00
10881;BME280;5493;48.884;8.338;2023-11-21T07:54:02;99878.50;;;10.67;100.00
10881;BME280;5493;48.884;8.338;2023-11-21T07:56:30;99868.94;;;10.42;100.00
10881;BME280;5493;48.884;8.338;2023-11-21T07:58:57;99878.69;;;10.54;100.00
10881;BME280;5493;48.884;8.338;2023-11-21T08:01:24;99883.56;;;10.75;100.00
10881;BME280;5493;48.884;8.338;2023-11-21T08:03:50;99889.56;;;10.77;100.00
10881;BME280;5493;48.884;8.338;2023-11-21T08:06:19;99884.25;;;10.71;100.00
10881;BME280;5493;48.884;8.338;2023-11-21T08:08:45;99885.22;;;10.47;100.00
10881;BME280;5493;48.884;8.338;2023-11-21T08:11:12;99892.84;;;10.50;100.00
10881;BME280;5493;48.884;8.338;2023-11-21T08:13:39;99898.91;;;10.33;100.00
10881;BME280;5493;48.884;8.338;2023-11-21T08:16:06;99907.56;;;10.35;100.00
10881;BME280;5493;48.884;8.338;2023-11-21T08:18:33;99906.06;;;10.40;100.00
10881;BME280;5493;48.884;8.338;2023-11-21T08:21:00;99904.75;;;10.30;100.00
10881;BME280;5493;48.884;8.338;2023-11-21T08:23:29;99912.47;;;10.27;100.00
10881;BME280;5493;48.884;8.338;2023-11-21T08:25:56;99913.88;;;10.59;100.00
10881;BME280;5493;48.884;8.338;2023-11-21T08:28:22;99915.19;;;10.38;100.00
10881;BME280;5493;48.884;8.338;2023-11-21T08:30:51;99923.94;;;10.52;100.00
10881;BME280;5493;48.884;8.338;2023-11-21T08:33:17;99925.16;;;10.68;100.00
10881;BME280;5493;48.884;8.338;2023-11-21T08:35:44;99919.13;;;10.84;100.00
10881;BME280;5493;48.884;8.338;2023-11-21T08:38:11;99918.03;;;10.73;100.00
10881;BME280;5493;48.884;8.338;2023-11-21T08:40:39;99920.47;;;10.63;100.00
10881;BME280;5493;48.884;8.338;2023-11-21T08:43:06;99928.41;;;10.58;100.00
10881;BME280;5493;48.884;8.338;2023-11-21T08:45:33;99941.22;;;10.63;100.00
10881;BME280;5493;48.884;8.338;2023-11-21T08:48:00;99934.63;;;10.59;100.00
10881;BME280;5493;48.884;8.338;2023-11-21T08:50:26;99943.97;;;10.56;100.00
10881;BME280;5493;48.884;8.338;2023-11-21T08:52:53;99941.88;;;10.58;100.00
10881;BME280;5493;48.884;8.338;2023-11-21T08:55:24;99937.41;;;10.82;100.00
10881;BME280;5493;48.884;8.338;2023-11-21T08:57:52;99938.13;;;10.89;100.00
10881;BME280;5493;48.884;8.338;2023-11-21T09:00:19;99933.50;;;10.66;100.00
10881;BME280;5493;48.884;8.338;2023-11-21T09:02:46;99944.69;;;10.52;100.00
10881;BME280;5493;48.884;8.338;2023-11-21T09:05:13;99947.06;;;10.60;100.00
10881;BME280;5493;48.884;8.338;2023-11-21T09:07:41;99953.47;;;10.77;100.00
10881;BME280;5493;48.884;8.338;2023-11-21T09:10:08;99951.66;;;10.71;100.00
10881;BME280;5493;48.884;8.338;2023-11-21T09:12:35;99959.75;;;10.71;100.00
10881;BME280;5493;48.884;8.338;2023-11-21T09:15:05;99959.66;;;10.48;100.00
10881;BME280;5493;48.884;8.338;2023-11-21T09:17:32;99955.03;;;10.36;100.00
10881;BME280;5493;48.884;8.338;2023-11-21T09:19:59;99961.25;;;10.37;100.00
10881;BME280;5493;48.884;8.338;2023-11-21T09:22:27;99965.97;;;10.42;100.00
10881;BME280;5493;48.884;8.338;2023-11-21T09:24:55;99966.88;;;10.65;100.00
10881;BME280;5493;48.884;8.338;2023-11-21T09:27:21;99969.38;;;10.78;100.00
10881;BME280;5493;48.884;8.338;2023-11-21T09:29:48;99964.59;;;10.80;100.00
10881;BME280;5493;48.884;8.338;2023-11-21T09:32:16;99965.28;;;11.06;100.00
10881;BME280;5493;48.884;8.338;2023-11-21T09:34:43;99972.41;;;11.00;100.00
10881;BME280;5493;48.884;8.338;2023-11-21T09:37:10;99977.78;;;11.00;100.00
10881;BME280;5493;48.884;8.338;2023-11-21T09:39:36;99976.53;;;11.14;100.00
10881;BME280;5493;48.884;8.338;2023-11-21T09:42:08;99977.84;;;11.12;100.00
10881;BME280;5493;48.884;8.338;2023-11-21T09:44:45;99985.06;;;11.41;100.00
10881;BME280;5493;48.884;8.338;2023-11-21T09:47:15;99986.00;;;11.47;100.00
10881;BME280;5493;48.884;8.338;2023-11-21T09:49:46;99987.66;;;11.59;100.00
10881;BME280;5493;48.884;8.338;2023-11-21T09:52:20;99990.78;;;11.74;100.00
10881;BME280;5493;48.884;8.338;2023-11-21T09:54:50;99995.00;;;11.82;100.00
10881;BME280;5493;48.884;8.338;2023-11-21T09:57:19;99992.34;;;11.52;100.00
10881;BME280;5493;48.884;8.338;2023-11-21T09:59:46;99990.59;;;11.69;100.00
10881;BME280;5493;48.884;8.338;2023-11-21T10:02:17;99995.88;;;11.41;100.00
10881;BME280;5493;48.884;8.338;2023-11-21T10:04:45;99995.53;;;11.49;100.00
10881;BME280;5493;48.884;8.338;2023-11-21T10:07:13;99999.72;;;11.33;100.00
10881;BME280;5493;48.884;8.338;2023-11-21T10:09:42;99998.44;;;11.48;100.00
10881;BME280;5493;48.884;8.338;2023-11-21T10:12:10;100000.78;;;11.44;100.00
10881;BME280;5493;48.884;8.338;2023-11-21T10:14:40;99994.13;;;11.70;100.00
10881;BME280;5493;48.884;8.338;2023-11-21T10:17:08;100005.91;;;11.87;100.00
10881;BME280;5493;48.884;8.338;2023-11-21T10:19:39;99994.78;;;11.72;100.00
10881;BME280;5493;48.884;8.338;2023-11-21T10:22:06;99998.28;;;11.84;100.00
10881;BME280;5493;48.884;8.338;2023-11-21T10:24:34;99995.88;;;11.53;100.00
10881;BME280;5493;48.884;8.338;2023-11-21T10:27:00;100004.16;;;11.81;100.00
10881;BME280;5493;48.884;8.338;2023-11-21T10:29:29;99996.34;;;11.61;100.00
10881;BME280;5493;48.884;8.338;2023-11-21T10:31:55;99997.28;;;11.55;100.00
10881;BME280;5493;48.884;8.338;2023-11-21T10:34:24;99999.81;;;12.03;100.00
10881;BME280;5493;48.884;8.338;2023-11-21T10:36:54;100004.38;;;11.79;100.00
10881;BME280;5493;48.884;8.338;2023-11-21T10:39:23;100001.41;;;11.69;100.00
10881;BME280;5493;48.884;8.338;2023-11-21T10:41:55;100002.84;;;11.83;100.00
10881;BME280;5493;48.884;8.338;2023-11-21T10:44:21;100007.28;;;11.66;100.00
10881;BME280;5493;48.884;8.338;2023-11-21T10:46:50;100014.09;;;11.57;100.00
10881;BME280;5493;48.884;8.338;2023-11-21T10:49:20;100003.47;;;11.32;100.00
10881;BME280;5493;48.884;8.338;2023-11-21T10:51:46;100011.97;;;11.59;100.00
10881;BME280;5493;48.884;8.338;2023-11-21T10:54:18;100015.78;;;11.28;100.00
10881;BME280;5493;48.884;8.338;2023-11-21T10:56:47;100026.56;;;11.17;100.00
10881;BME280;5493;48.884;8.338;2023-11-21T10:59:16;100022.06;;;11.11;100.00
10881;BME280;5493;48.884;8.338;2023-11-21T11:01:45;100029.97;;;10.94;100.00
10881;BME280;5493;48.884;8.338;2023-11-21T11:04:12;100033.94;;;11.21;100.00
10881;BME280;5493;48.884;8.338;2023-11-21T11:06:42;100025.84;;;11.21;100.00
10881;BME280;5493;48.884;8.338;2023-11-21T11:09:13;100034.19;;;11.20;100.00
10881;BME280;5493;48.884;8.338;2023-11-21T11:11:43;100026.31;;;11.18;100.00
10881;BME280;5493;48.884;8.338;2023-11-21T11:14:19;100033.03;;;11.27;100.00
10881;BME280;5493;48.884;8.338;2023-11-21T11:16:53;100038.38;;;11.16;100.00
10881;BME280;5493;48.884;8.338;2023-11-21T11:19:20;100038.19;;;11.29;100.00
10881;BME280;5493;48.884;8.338;2023-11-21T11:21:53;100045.34;;;11.23;100.00
10881;BME280;5493;48.884;8.338;2023-11-21T11:24:53;100048.50;;;11.20;100.00
10881;BME280;5493;48.884;8.338;2023-11-21T11:27:37;100039.28;;;11.40;100.00
10881;BME280;5493;48.884;8.338;2023-11-21T11:30:14;100055.81;;;11.31;100.00
10881;BME280;5493;48.884;8.338;2023-11-21T11:32:55;100043.41;;;11.42;100.00
10881;BME280;5493;48.884;8.338;2023-11-21T11:35:30;100041.97;;;11.40;100.00
10881;BME280;5493;48.884;8.338;2023-11-21T11:38:01;100045.28;;;11.12;100.00
10881;BME280;5493;48.884;8.338;2023-11-21T11:40:38;100038.66;;;11.26;100.00
10881;BME280;5493;48.884;8.338;2023-11-21T11:43:07;100050.63;;;11.00;100.00
10881;BME280;5493;48.884;8.338;2023-11-21T11:45:34;100042.97;;;11.15;100.00
10881;BME280;5493;48.884;8.338;2023-11-21T11:48:03;100044.81;;;11.15;100.00
10881;BME280;5493;48.884;8.338;2023-11-21T11:50:31;100041.66;;;11.06;100.00
10881;BME280;5493;48.884;8.338;2023-11-21T11:53:13;100042.91;;;11.33;100.00
10881;BME280;5493;48.884;8.338;2023-11-21T11:55:40;100046.63;;;11.32;100.00
10881;BME280;5493;48.884;8.338;2023-11-21T11:58:08;100046.56;;;11.09;100.00
10881;BME280;5493;48.884;8.338;2023-11-21T12:00:35;100041.66;;;11.18;100.00
10881;BME280;5493;48.884;8.338;2023-11-21T12:03:06;100039.13;;;11.23;100.00
10881;BME280;5493;48.884;8.338;2023-11-21T12:05:37;100046.06;;;11.30;100.00
10881;BME280;5493;48.884;8.338;2023-11-21T12:08:07;100045.06;;;11.55;100.00
10881;BME280;5493;48.884;8.338;2023-11-21T12:10:36;100039.09;;;11.53;100.00
10881;BME280;5493;48.884;8.338;2023-11-21T12:13:05;100035.09;;;11.55;100.00
10881;BME280;5493;48.884;8.338;2023-11-21T12:15:34;100044.66;;;11.28;100.00
10881;BME280;5493;48.884;8.338;2023-11-21T12:18:01;100037.41;;;11.40;100.00
10881;BME280;5493;48.884;8.338;2023-11-21T12:20:28;100034.97;;;11.62;100.00
10881;BME280;5493;48.884;8.338;2023-11-21T12:22:56;100041.84;;;11.76;100.00
10881;BME280;5493;48.884;8.338;2023-11-21T12:25:26;100038.84;;;11.66;100.00
10881;BME280;5493;48.884;8.338;2023-11-21T12:27:54;100045.03;;;11.84;100.00
10881;BME280;5493;48.884;8.338;2023-11-21T12:30:23;100046.50;;;11.69;100.00
10881;BME280;5493;48.884;8.338;2023-11-21T12:32:55;100044.19;;;11.72;100.00
10881;BME280;5493;48.884;8.338;2023-11-21T12:35:23;100042.75;;;11.70;100.00
10881;BME280;5493;48.884;8.338;2023-11-21T12:37:51;100043.56;;;11.70;100.00
10881;BME280;5493;48.884;8.338;2023-11-21T12:40:18;100050.25;;;11.56;100.00
10881;BME280;5493;48.884;8.338;2023-11-21T12:42:49;100058.09;;;11.58;100.00
10881;BME280;5493;48.884;8.338;2023-11-21T12:45:21;100058.44;;;11.61;100.00
10881;BME280;5493;48.884;8.338;2023-11-21T12:47:49;100058.41;;;11.38;100.00
10881;BME280;5493;48.884;8.338;2023-11-21T12:50:20;100064.63;;;11.39;100.00
10881;BME280;5493;48.884;8.338;2023-11-21T12:52:50;100074.72;;;11.43;100.00
10881;BME280;5493;48.884;8.338;2023-11-21T12:55:17;100071.34;;;11.48;100.00
10881;BME280;5493;48.884;8.338;2023-11-21T12:57:48;100065.94;;;11.48;100.00
10881;BME280;5493;48.884;8.338;2023-11-21T13:00:17;100069.78;;;11.40;100.00